Stinnett, Texas
Current Conditions -  °F | °C
As of 3:51 AM on Saturday 29 Nov 2014 (Local Time) from KBGD Reporting Station
Clear Clear  
Wind Chill: 54°   Ceiling: Unl
Heat Index: 54°   Visibility: 10mi
Dew Point: 18°   Wind: 13mph
Humidity: 24%   Direction: 250°WSW
Pressure: 29.77"   Gusts: NA
Location:  35.83°N, 101.44°W
Report Text: KBGD 290951Z AUTO 25011KT 10SM CLR 12/M08 A2977 RMK AO2 SLP045 T01221078
Loading
Personal Weather Stations






























Interactive Weather Map New forecast layout! Learn more

10-Day Weather Forecast

Advertisements
Track Severe Weather on mobile